Time;durP1;ratioP1;P1;durP2;ratioP2;P2;SDS_P1;SDS_P2;PMS_P1;PMS_P2;Temp;Humidity;BMP_temperature;BMP_pressure;BME280_temperature;BME280_humidity;BME280_pressure;Samples;Min_cycle;Max_cycle;Signal;HPM_P1;HPM_P2
2022/09/11 00:01:07;;;;;;;4.50;3.10;;;20.50;82.40;;;;;;5008587;28;20099;-78
2022/09/11 00:03:34;;;;;;;5.63;3.25;;;20.50;82.50;;;;;;5008432;28;20026;-77
2022/09/11 00:06:09;;;;;;;5.38;3.10;;;20.70;82.50;;;;;;5007212;28;20123;-78
2022/09/11 00:08:36;;;;;;;4.60;3.22;;;20.50;82.40;;;;;;5012647;28;20046;-78
2022/09/11 00:11:09;;;;;;;5.35;3.40;;;20.50;82.50;;;;;;5014193;28;20032;-78
2022/09/11 00:13:37;;;;;;;5.53;3.53;;;20.40;82.40;;;;;;5012241;28;20025;-78
2022/09/11 00:16:06;;;;;;;4.72;3.20;;;20.50;82.50;;;;;;5011334;28;20034;-78
2022/09/11 00:18:34;;;;;;;5.30;3.65;;;20.50;82.50;;;;;;5012105;28;20060;-79
2022/09/11 00:21:01;;;;;;;4.40;2.70;;;20.50;82.50;;;;;;5010681;28;20030;-78
2022/09/11 00:23:27;;;;;;;4.82;3.03;;;20.50;82.40;;;;;;5011492;28;20561;-79
2022/09/11 00:25:53;;;;;;;4.50;2.95;;;20.50;82.40;;;;;;5010642;28;20080;-79
2022/09/11 00:28:21;;;;;;;5.05;3.10;;;20.50;82.30;;;;;;5009045;28;20078;-78
2022/09/11 00:30:57;;;;;;;4.78;3.20;;;20.60;82.30;;;;;;5009079;28;20037;-79
2022/09/11 00:33:22;;;;;;;4.85;3.38;;;20.50;82.20;;;;;;5008812;28;20069;-77
2022/09/11 00:35:57;;;;;;;5.38;3.65;;;20.60;82.30;;;;;;5009562;28;20030;-78
2022/09/11 00:38:28;;;;;;;5.15;3.45;;;20.50;82.10;;;;;;5009137;28;20063;-77
2022/09/11 00:40:57;;;;;;;5.03;3.25;;;20.50;82.20;;;;;;5008850;28;20033;-77
2022/09/11 00:43:23;;;;;;;4.88;3.17;;;20.50;82.20;;;;;;5006737;28;20030;-78
2022/09/11 00:46:01;;;;;;;5.20;3.70;;;20.50;82.30;;;;;;5006700;28;20041;-78
2022/09/11 00:48:32;;;;;;;5.75;3.63;;;20.50;82.30;;;;;;5006459;28;20088;-78
2022/09/11 00:51:02;;;;;;;5.30;3.60;;;20.50;82.40;;;;;;5008648;28;20429;-78
2022/09/11 00:53:32;;;;;;;5.65;4.18;;;20.50;82.40;;;;;;5008301;28;20268;-77
2022/09/11 00:56:01;;;;;;;5.50;3.55;;;20.50;82.40;;;;;;5008571;28;20030;-78
2022/09/11 00:58:30;;;;;;;5.32;3.70;;;20.50;82.50;;;;;;5008700;28;20404;-78
2022/09/11 01:00:56;;;;;;;5.70;3.80;;;20.50;82.50;;;;;;5007413;28;20030;-79
2022/09/11 01:03:24;;;;;;;5.60;3.80;;;20.50;82.50;;;;;;5007583;28;20481;-78
2022/09/11 01:05:51;;;;;;;5.35;3.60;;;20.50;82.50;;;;;;5007225;28;20091;-78
2022/09/11 01:08:17;;;;;;;5.35;3.53;;;20.50;82.60;;;;;;5006252;28;20473;-77
2022/09/11 01:11:12;;;;;;;5.10;3.17;;;20.50;82.60;;;;;;5008522;28;20037;-78
2022/09/11 01:14:06;;;;;;;5.40;3.50;;;20.50;82.50;;;;;;5008506;28;20105;-77
2022/09/11 01:16:55;;;;;;;4.75;3.20;;;20.50;82.40;;;;;;5011573;28;20386;-78
2022/09/11 01:19:40;;;;;;;5.60;3.63;;;20.50;82.30;;;;;;5009505;28;20116;-79
2022/09/11 01:22:23;;;;;;;5.32;3.67;;;20.50;82.20;;;;;;5010424;28;20044;-77
2022/09/11 01:24:55;;;;;;;5.55;3.88;;;20.50;82.20;;;;;;5010305;28;20026;-79
2022/09/11 01:27:39;;;;;;;;;;;20.50;82.20;;;;;;5010688;28;20056;-78
2022/09/11 01:30:09;;;;;;;5.53;3.72;;;20.50;82.20;;;;;;5011108;28;19909;-76
2022/09/11 01:32:53;;;;;;;5.88;4.10;;;20.50;82.30;;;;;;5009773;28;20030;-77
2022/09/11 01:35:30;;;;;;;5.97;4.03;;;20.50;82.40;;;;;;5012166;28;20520;-78
2022/09/11 01:38:11;;;;;;;6.22;4.20;;;20.50;82.40;;;;;;5009421;28;20516;-77
2022/09/11 01:41:09;;;;;;;6.60;4.57;;;20.50;82.40;;;;;;5011683;28;20018;-77
2022/09/11 01:43:43;;;;;;;6.20;4.47;;;20.50;82.50;;;;;;4996639;28;20025;-78
2022/09/11 01:46:10;;;;;;;6.75;4.25;;;20.50;82.50;;;;;;5011152;28;20022;-78
2022/09/11 01:48:47;;;;;;;6.55;4.57;;;20.50;82.50;;;;;;5010308;28;20017;-78
2022/09/11 01:51:20;;;;;;;6.50;4.57;;;20.40;82.40;;;;;;5010333;28;20036;-77
2022/09/11 01:53:49;;;;;;;6.47;4.43;;;20.40;82.50;;;;;;5010043;28;20029;-76
2022/09/11 01:56:28;;;;;;;6.63;4.43;;;20.40;82.50;;;;;;5010031;28;20038;-76
2022/09/11 01:59:00;;;;;;;6.82;4.88;;;20.40;82.60;;;;;;5008741;28;20033;-78
2022/09/11 02:01:32;;;;;;;6.20;4.25;;;20.40;82.50;;;;;;5010701;28;20040;-76
2022/09/11 02:04:26;;;;;;;6.47;4.32;;;20.40;82.50;;;;;;5009097;28;20028;-77
2022/09/11 02:07:01;;;;;;;6.47;4.38;;;20.50;82.50;;;;;;5009517;28;20034;-78
2022/09/11 02:09:32;;;;;;;5.95;3.78;;;20.50;82.40;;;;;;5010165;28;20033;-78
2022/09/11 02:12:02;;;;;;;6.15;4.35;;;20.50;82.30;;;;;;5009411;28;20566;-76
2022/09/11 02:14:34;;;;;;;6.63;4.50;;;20.50;82.30;;;;;;5009690;28;20778;-79
2022/09/11 02:17:14;;;;;;;6.65;4.70;;;20.50;82.30;;;;;;5010447;28;20029;-78
2022/09/11 02:19:40;;;;;;;6.70;4.90;;;20.50;82.30;;;;;;5009647;28;20038;-78
2022/09/11 02:22:06;;;;;;;7.20;5.13;;;20.50;82.30;;;;;;5009363;28;20103;-78
2022/09/11 02:24:32;;;;;;;6.70;4.65;;;20.40;82.30;;;;;;5009461;28;20033;-78
2022/09/11 02:27:04;;;;;;;6.95;5.15;;;20.40;82.40;;;;;;5008421;28;20449;-79
2022/09/11 02:29:30;;;;;;;7.45;5.20;;;20.40;82.40;;;;;;5015798;28;20021;-80
2022/09/11 02:31:55;;;;;;;7.10;5.18;;;20.40;82.50;;;;;;5014128;28;20054;-79
2022/09/11 02:34:26;;;;;;;7.40;5.43;;;20.40;82.40;;;;;;5007364;28;20145;-79
2022/09/11 02:37:17;;;;;;;6.70;4.65;;;20.40;82.40;;;;;;5002361;28;20049;-79
2022/09/11 02:40:03;;;;;;;6.82;5.20;;;20.40;82.50;;;;;;5010873;28;20051;-77
2022/09/11 02:42:58;;;;;;;8.07;5.75;;;20.40;82.50;;;;;;5010847;28;20121;-78
2022/09/11 02:45:34;;;;;;;6.95;4.97;;;20.40;82.60;;;;;;5007379;28;20085;-77
2022/09/11 02:48:28;;;;;;;8.15;5.68;;;20.40;82.60;;;;;;5011295;28;20018;-78
2022/09/11 02:51:16;;;;;;;6.60;4.70;;;20.40;82.60;;;;;;5009788;28;20034;-78
2022/09/11 02:54:09;;;;;;;6.35;4.78;;;20.40;82.60;;;;;;5010400;28;20061;-78
2022/09/11 02:57:10;;;;;;;6.97;5.03;;;20.40;82.50;;;;;;5010468;28;20799;-78
2022/09/11 02:59:43;;;;;;;7.05;4.95;;;20.40;82.40;;;;;;5008570;28;20033;-78
2022/09/11 03:02:13;;;;;;;6.70;4.70;;;20.50;82.40;;;;;;5010007;28;20060;-78
2022/09/11 03:04:40;;;;;;;7.18;5.35;;;20.40;82.30;;;;;;5008542;28;20030;-78
2022/09/11 03:07:06;;;;;;;7.60;5.45;;;20.40;82.30;;;;;;5009530;28;20120;-78
2022/09/11 03:09:33;;;;;;;7.55;5.72;;;20.40;82.30;;;;;;5007160;28;20397;-76
2022/09/11 03:11:59;;;;;;;7.32;5.45;;;20.40;82.40;;;;;;5009667;28;20026;-78
2022/09/11 03:14:25;;;;;;;7.63;5.72;;;20.40;82.40;;;;;;5009098;28;20033;-78
2022/09/11 03:16:50;;;;;;;7.47;5.63;;;20.40;82.40;;;;;;5009580;28;20029;-77
2022/09/11 03:19:16;;;;;;;7.60;5.63;;;20.40;82.50;;;;;;5008868;28;20037;-77
2022/09/11 03:21:41;;;;;;;7.93;5.63;;;20.40;82.50;;;;;;5008922;28;20439;-77
2022/09/11 03:24:08;;;;;;;7.50;5.82;;;20.40;82.50;;;;;;5009003;28;20036;-78
2022/09/11 03:26:35;;;;;;;8.15;5.95;;;20.40;82.50;;;;;;5007356;28;20030;-77
2022/09/11 03:29:01;;;;;;;7.63;5.57;;;20.40;82.60;;;;;;5008485;28;20400;-77
2022/09/11 03:31:27;;;;;;;8.30;6.18;;;20.40;82.50;;;;;;5007665;28;20025;-78
2022/09/11 03:33:53;;;;;;;8.07;5.93;;;20.40;82.50;;;;;;5007392;28;20021;-78
2022/09/11 03:36:19;;;;;;;7.60;5.63;;;20.30;82.40;;;;;;5009044;28;20049;-78
2022/09/11 03:38:46;;;;;;;8.35;6.30;;;20.40;82.60;;;;;;5008779;28;20022;-77
2022/09/11 03:41:12;;;;;;;7.38;5.45;;;20.40;82.60;;;;;;5007821;28;20095;-77
2022/09/11 03:43:38;;;;;;;7.13;5.28;;;20.40;82.60;;;;;;5007609;28;20513;-76
2022/09/11 03:46:03;;;;;;;6.95;5.00;;;20.40;82.60;;;;;;5006595;28;20037;-78
2022/09/11 03:48:29;;;;;;;8.20;5.60;;;20.40;82.50;;;;;;5005724;28;20243;-77
2022/09/11 03:50:54;;;;;;;8.13;5.80;;;20.40;82.40;;;;;;5007186;28;20739;-77
2022/09/11 03:53:20;;;;;;;7.38;5.35;;;20.40;82.40;;;;;;5007012;28;20397;-78
2022/09/11 03:55:46;;;;;;;8.63;6.50;;;20.40;82.40;;;;;;5007150;28;20087;-77
2022/09/11 03:58:12;;;;;;;7.78;6.00;;;20.40;82.40;;;;;;5006858;28;20057;-78
2022/09/11 04:00:42;;;;;;;8.55;6.10;;;20.40;82.40;;;;;;5007243;28;20026;-78
2022/09/11 04:03:12;;;;;;;7.72;5.85;;;20.40;82.40;;;;;;5007050;28;20079;-77
2022/09/11 04:05:37;;;;;;;8.32;6.32;;;20.40;82.50;;;;;;5007185;28;20122;-75
2022/09/11 04:08:04;;;;;;;8.57;6.30;;;20.30;82.50;;;;;;5005425;28;20107;-77
2022/09/11 04:10:33;;;;;;;8.30;6.35;;;20.40;82.50;;;;;;5006774;28;20037;-76
2022/09/11 04:12:59;;;;;;;8.18;6.18;;;20.30;82.50;;;;;;5007103;28;20797;-77
2022/09/11 04:15:25;;;;;;;8.18;6.18;;;20.30;82.50;;;;;;5006913;28;20019;-78
2022/09/11 04:17:50;;;;;;;9.60;6.38;;;20.30;82.50;;;;;;5007097;28;20030;-77
2022/09/11 04:20:16;;;;;;;7.97;6.13;;;20.30;82.50;;;;;;5005581;28;20049;-77
2022/09/11 04:22:42;;;;;;;8.80;6.07;;;20.40;82.60;;;;;;5005932;28;20141;-76
2022/09/11 04:25:08;;;;;;;8.27;6.22;;;20.30;82.50;;;;;;5006748;28;20026;-77
2022/09/11 04:27:33;;;;;;;7.90;5.82;;;20.30;82.60;;;;;;5006936;28;20496;-75
2022/09/11 04:29:59;;;;;;;8.02;6.10;;;20.30;82.60;;;;;;5005449;28;20037;-78
2022/09/11 04:32:24;;;;;;;7.70;5.50;;;20.30;82.60;;;;;;5005909;28;20160;-77
2022/09/11 04:34:50;;;;;;;8.40;6.55;;;20.40;82.70;;;;;;5004300;28;20037;-77
2022/09/11 04:37:15;;;;;;;7.80;6.10;;;20.30;82.50;;;;;;5006603;28;20026;-78
2022/09/11 04:39:41;;;;;;;8.60;6.10;;;20.40;82.50;;;;;;5006190;28;20362;-76
2022/09/11 04:42:09;;;;;;;7.88;5.63;;;20.40;82.50;;;;;;5002586;28;20799;-77
2022/09/11 04:44:35;;;;;;;8.07;6.00;;;20.40;82.50;;;;;;5002585;28;20513;-77
2022/09/11 04:47:00;;;;;;;8.60;6.50;;;20.40;82.40;;;;;;5007313;28;20037;-79
2022/09/11 04:49:26;;;;;;;7.75;5.95;;;20.40;82.40;;;;;;5009962;28;20026;-77
2022/09/11 04:51:51;;;;;;;8.30;6.10;;;20.40;82.40;;;;;;5011835;28;20030;-79
2022/09/11 04:54:20;;;;;;;8.45;6.25;;;20.40;82.50;;;;;;5015532;28;20030;-77
2022/09/11 04:56:45;;;;;;;9.45;6.40;;;20.30;82.50;;;;;;5013827;28;20034;-78
2022/09/11 04:59:21;;;;;;;8.13;6.25;;;20.30;82.50;;;;;;5015205;28;20026;-78
2022/09/11 05:01:47;;;;;;;9.93;7.35;;;20.40;82.60;;;;;;5014966;28;20092;-78
2022/09/11 05:04:15;;;;;;;8.80;6.10;;;20.30;82.60;;;;;;5013272;28;20034;-78
2022/09/11 05:06:41;;;;;;;8.20;6.35;;;20.30;82.60;;;;;;5012329;28;20461;-77
2022/09/11 05:09:09;;;;;;;8.13;6.30;;;20.30;82.50;;;;;;5010987;28;20022;-78
2022/09/11 05:11:35;;;;;;;8.55;6.57;;;20.30;82.50;;;;;;5010399;28;20030;-77
2022/09/11 05:14:01;;;;;;;8.45;6.10;;;20.30;82.60;;;;;;5011022;28;20022;-78
2022/09/11 05:16:29;;;;;;;8.50;6.55;;;20.30;82.50;;;;;;5010571;28;20033;-78
2022/09/11 05:18:55;;;;;;;8.30;6.20;;;20.20;82.60;;;;;;5009258;28;20034;-78
2022/09/11 05:21:23;;;;;;;7.80;5.95;;;20.30;82.70;;;;;;5011354;28;20412;-78
2022/09/11 05:23:51;;;;;;;7.80;5.80;;;20.30;82.60;;;;;;5009746;28;20132;-76
2022/09/11 05:26:23;;;;;;;7.72;5.97;;;20.30;82.60;;;;;;5009443;28;20040;-78
2022/09/11 05:28:56;;;;;;;8.02;6.13;;;20.30;82.60;;;;;;5009126;28;20671;-77
2022/09/11 05:31:24;;;;;;;8.80;6.00;;;20.30;82.50;;;;;;5011546;28;20030;-85
2022/09/11 05:33:51;;;;;;;9.45;6.18;;;20.40;82.50;;;;;;5011192;28;20018;-77
2022/09/11 05:36:17;;;;;;;8.75;6.63;;;20.40;82.50;;;;;;5013172;28;20084;-79
2022/09/11 05:38:42;;;;;;;8.98;6.60;;;20.40;82.40;;;;;;5014069;28;20040;-78
2022/09/11 05:41:10;;;;;;;9.18;6.93;;;20.30;82.40;;;;;;5010411;28;20038;-77
2022/09/11 05:43:36;;;;;;;8.55;6.25;;;20.30;82.50;;;;;;5009528;28;20523;-77
2022/09/11 05:46:03;;;;;;;8.30;6.30;;;20.30;82.50;;;;;;5010569;28;20026;-78
2022/09/11 05:48:30;;;;;;;8.13;5.95;;;20.30;82.50;;;;;;5010304;28;20464;-78
2022/09/11 05:51:01;;;;;;;8.85;6.30;;;20.30;82.50;;;;;;5009226;28;20129;-79
2022/09/11 05:53:30;;;;;;;8.40;5.95;;;20.30;82.50;;;;;;5008460;28;20489;-80
2022/09/11 05:55:56;;;;;;;9.00;6.22;;;20.20;82.50;;;;;;5007254;28;20038;-78
2022/09/11 05:58:22;;;;;;;7.93;6.00;;;20.30;82.60;;;;;;5008422;28;20492;-78
2022/09/11 06:00:47;;;;;;;9.23;6.40;;;20.30;82.60;;;;;;5012548;28;20028;-78
2022/09/11 06:03:18;;;;;;;9.07;7.18;;;20.30;82.50;;;;;;5012093;28;20379;-77
2022/09/11 06:05:43;;;;;;;9.63;6.97;;;20.30;82.50;;;;;;5013492;28;20473;-78
2022/09/11 06:08:10;;;;;;;11.30;8.15;;;20.30;82.50;;;;;;5012632;28;20109;-79
2022/09/11 06:10:36;;;;;;;9.13;7.10;;;20.30;82.70;;;;;;5001932;28;20029;-78
2022/09/11 06:13:02;;;;;;;10.15;7.63;;;20.30;82.60;;;;;;5005142;28;20022;-78
2022/09/11 06:15:28;;;;;;;9.20;6.70;;;20.30;82.60;;;;;;4996779;28;20049;-77
2022/09/11 06:17:54;;;;;;;8.55;6.13;;;20.30;82.50;;;;;;4999325;28;20022;-79
2022/09/11 06:20:20;;;;;;;8.82;6.45;;;20.30;82.50;;;;;;5001627;28;20030;-77
2022/09/11 06:22:46;;;;;;;8.88;6.63;;;20.30;82.40;;;;;;4995807;28;20033;-79
2022/09/11 06:25:11;;;;;;;9.00;6.50;;;20.30;82.30;;;;;;4992246;28;20102;-78
2022/09/11 06:27:36;;;;;;;9.93;6.75;;;20.30;82.30;;;;;;4992647;28;20031;-78
2022/09/11 06:30:03;;;;;;;10.02;7.45;;;20.30;82.20;;;;;;4990570;28;20031;-78
2022/09/11 06:32:28;;;;;;;9.70;7.03;;;20.30;82.30;;;;;;4992167;28;20031;-78
2022/09/11 06:34:54;;;;;;;9.77;7.38;;;20.30;82.30;;;;;;4992096;28;20026;-78
2022/09/11 06:37:20;;;;;;;9.65;7.38;;;20.30;82.30;;;;;;4991765;28;20044;-78
2022/09/11 06:39:45;;;;;;;9.98;7.82;;;20.30;82.40;;;;;;4996447;28;20057;-78
2022/09/11 06:42:10;;;;;;;9.95;7.60;;;20.30;82.40;;;;;;5003467;28;20514;-80
2022/09/11 06:44:36;;;;;;;10.30;7.80;;;20.30;82.60;;;;;;5002470;28;20101;-79
2022/09/11 06:47:02;;;;;;;9.98;7.72;;;20.30;82.40;;;;;;4997167;28;20022;-77
2022/09/11 06:49:28;;;;;;;10.52;7.70;;;20.30;82.50;;;;;;5000305;28;20485;-79
2022/09/11 06:51:53;;;;;;;9.48;7.45;;;20.30;82.50;;;;;;4995988;28;20096;-78
2022/09/11 06:54:19;;;;;;;10.65;7.40;;;20.20;82.50;;;;;;5000005;28;20033;-80
2022/09/11 06:56:44;;;;;;;10.60;7.53;;;20.30;82.60;;;;;;5000787;28;20075;-78
2022/09/11 06:59:10;;;;;;;10.23;7.68;;;20.30;82.60;;;;;;5005889;28;20022;-78
2022/09/11 07:01:38;;;;;;;10.73;7.90;;;20.20;82.50;;;;;;5006675;28;20521;-81
2022/09/11 07:04:03;;;;;;;10.88;7.88;;;20.20;82.60;;;;;;5014009;28;20029;-80
2022/09/11 07:06:30;;;;;;;9.50;7.22;;;20.20;82.60;;;;;;5012916;28;20037;-78
2022/09/11 07:09:00;;;;;;;9.40;7.00;;;20.30;82.60;;;;;;5030905;28;20037;-79
2022/09/11 07:11:26;;;;;;;9.75;7.38;;;20.30;82.60;;;;;;5024436;28;20050;-79
2022/09/11 07:13:52;;;;;;;9.75;6.90;;;20.30;82.60;;;;;;5014570;28;20109;-81
2022/09/11 07:16:18;;;;;;;16.63;9.35;;;20.30;82.50;;;;;;5019503;28;20041;-82
2022/09/11 07:18:46;;;;;;;17.17;9.40;;;20.30;82.20;;;;;;5016509;28;20022;-78
2022/09/11 07:21:20;;;;;;;22.52;11.70;;;20.30;82.20;;;;;;5015370;28;20022;-79
2022/09/11 07:23:53;;;;;;;21.13;10.90;;;20.30;82.30;;;;;;5034442;28;20025;-78
2022/09/11 07:26:19;;;;;;;22.55;12.57;;;20.30;82.50;;;;;;5036341;28;20025;-78
2022/09/11 07:28:47;;;;;;;21.58;13.23;;;20.20;82.30;;;;;;5034565;28;20017;-79
2022/09/11 07:31:19;;;;;;;19.67;11.77;;;20.30;82.40;;;;;;5019453;28;20052;-79
2022/09/11 07:33:47;;;;;;;18.23;11.05;;;20.30;82.40;;;;;;5013837;28;20033;-78
2022/09/11 07:36:15;;;;;;;15.85;10.48;;;20.30;82.40;;;;;;5014193;28;20098;-78
2022/09/11 07:38:42;;;;;;;17.70;11.07;;;20.20;82.40;;;;;;5014588;28;20038;-76
2022/09/11 07:41:10;;;;;;;18.85;11.30;;;20.20;82.40;;;;;;5011903;28;20022;-78
2022/09/11 07:43:37;;;;;;;17.38;10.70;;;20.30;82.50;;;;;;5012156;28;20172;-87
2022/09/11 07:46:04;;;;;;;17.63;11.30;;;20.30;82.50;;;;;;5011258;28;20030;-78
2022/09/11 07:48:30;;;;;;;17.33;10.50;;;20.30;82.60;;;;;;5012199;28;20119;-79
2022/09/11 07:51:03;;;;;;;15.68;10.70;;;20.20;82.50;;;;;;5009125;28;20501;-75
2022/09/11 07:53:34;;;;;;;14.18;10.07;;;20.30;82.60;;;;;;5011146;28;20014;-77
2022/09/11 07:56:02;;;;;;;18.10;10.27;;;20.30;82.60;;;;;;5010458;28;20030;-79
2022/09/11 07:58:34;;;;;;;15.57;10.23;;;20.20;82.50;;;;;;5008656;28;20034;-77
2022/09/11 08:01:02;;;;;;;15.43;9.85;;;20.30;82.50;;;;;;5017773;28;20033;-77
2022/09/11 08:03:29;;;;;;;18.08;9.85;;;20.30;82.40;;;;;;5034438;28;20021;-78
2022/09/11 08:06:00;;;;;;;14.70;9.77;;;20.30;82.40;;;;;;5033502;28;20025;-78
2022/09/11 08:08:28;;;;;;;13.32;9.30;;;20.30;82.40;;;;;;5030303;28;20266;-77
2022/09/11 08:10:55;;;;;;;18.20;10.25;;;20.30;82.30;;;;;;5030773;28;20032;-77
2022/09/11 08:13:24;;;;;;;14.70;9.88;;;20.30;82.40;;;;;;5030442;28;20029;-78
2022/09/11 08:15:49;;;;;;;15.30;9.85;;;20.40;82.50;;;;;;5030028;28;20116;-77
2022/09/11 08:18:15;;;;;;;14.75;9.60;;;20.30;82.40;;;;;;5028996;28;20436;-76
2022/09/11 08:20:44;;;;;;;14.07;9.82;;;20.30;82.40;;;;;;5028542;28;20082;-76
2022/09/11 08:23:10;;;;;;;12.65;9.43;;;20.30;82.50;;;;;;5032168;28;20112;-77
2022/09/11 08:25:36;;;;;;;14.75;9.40;;;20.30;82.50;;;;;;5036443;28;20119;-78
2022/09/11 08:28:02;;;;;;;14.32;9.43;;;20.30;82.50;;;;;;5031661;28;20029;-78
2022/09/11 08:30:28;;;;;;;12.77;9.65;;;20.30;82.60;;;;;;5014686;28;20045;-78
2022/09/11 08:32:54;;;;;;;13.25;8.88;;;20.30;82.50;;;;;;5012221;28;20022;-80
2022/09/11 08:35:22;;;;;;;14.13;9.23;;;20.30;82.40;;;;;;5011762;28;20033;-80
2022/09/11 08:37:48;;;;;;;13.27;9.88;;;20.40;82.50;;;;;;5010707;28;20064;-77
2022/09/11 08:40:14;;;;;;;13.77;9.38;;;20.30;82.40;;;;;;5011347;28;20046;-76
2022/09/11 08:42:42;;;;;;;13.60;9.05;;;20.60;82.50;;;;;;5010953;28;20376;-76
2022/09/11 08:45:22;;;;;;;12.23;9.07;;;20.30;82.30;;;;;;5009785;28;20580;-76
2022/09/11 08:47:52;;;;;;;14.23;8.87;;;20.30;82.30;;;;;;4997884;28;20388;-78
2022/09/11 08:50:30;;;;;;;22.38;8.88;;;20.30;82.30;;;;;;4994130;28;20018;-77
2022/09/11 08:53:03;;;;;;;19.58;9.13;;;20.30;82.50;;;;;;4993470;28;20030;-78
2022/09/11 08:55:37;;;;;;;20.45;9.93;;;20.30;82.40;;;;;;5004595;28;20026;-79
2022/09/11 08:58:29;;;;;;;19.88;9.43;;;20.30;82.20;;;;;;5012669;28;20497;-78
2022/09/11 09:01:21;;;;;;;23.45;10.15;;;20.50;82.20;;;;;;5014075;28;20021;-79
2022/09/11 09:04:05;;;;;;;18.88;9.88;;;20.40;82.10;;;;;;5014950;28;20060;-81
2022/09/11 09:06:47;;;;;;;16.17;9.27;;;20.40;82.10;;;;;;5001849;28;20026;-78
2022/09/11 09:09:32;;;;;;;14.90;9.32;;;20.30;82.10;;;;;;4991823;28;20045;-78
2022/09/11 09:12:14;;;;;;;17.33;9.27;;;20.30;82.10;;;;;;4993046;28;20129;-79
2022/09/11 09:15:12;;;;;;;19.30;9.38;;;20.30;82.20;;;;;;4994511;28;20023;-78
2022/09/11 09:17:51;;;;;;;15.88;8.98;;;20.30;82.10;;;;;;4994026;28;20486;-80
2022/09/11 09:20:25;;;;;;;16.98;9.60;;;20.40;82.10;;;;;;4995394;28;20030;-78
2022/09/11 09:22:59;;;;;;;13.75;9.10;;;20.40;82.00;;;;;;4996806;28;20030;-81
2022/09/11 09:25:25;;;;;;;13.32;8.32;;;20.40;81.90;;;;;;4993283;28;20038;-82
2022/09/11 09:28:06;;;;;;;15.88;8.63;;;20.40;82.00;;;;;;4996031;28;20036;-79
2022/09/11 09:30:42;;;;;;;12.95;8.02;;;20.40;82.00;;;;;;4996997;28;20037;-82
2022/09/11 09:33:20;;;;;;;15.75;8.60;;;20.40;82.00;;;;;;5000990;28;20034;-80
2022/09/11 09:35:47;;;;;;;13.98;8.82;;;20.30;81.90;;;;;;5002734;28;20113;-80
2022/09/11 09:38:20;;;;;;;14.15;8.77;;;20.40;82.00;;;;;;4999008;28;20029;-77
2022/09/11 09:41:25;;;;;;;13.27;8.90;;;20.40;82.00;;;;;;4998620;28;20026;-81
2022/09/11 09:44:03;;;;;;;14.88;8.73;;;20.40;81.90;;;;;;4995058;28;20828;-78
2022/09/11 09:46:40;;;;;;;14.20;8.27;;;20.40;81.80;;;;;;4994110;28;20099;-81
2022/09/11 09:49:13;;;;;;;14.43;8.27;;;20.40;81.80;;;;;;4993784;28;20031;-79
2022/09/11 09:51:39;;;;;;;12.82;7.95;;;20.50;82.10;;;;;;4993493;28;20041;-78
2022/09/11 09:54:15;;;;;;;12.88;8.45;;;20.40;81.70;;;;;;4993634;28;20023;-78
2022/09/11 09:57:03;;;;;;;13.18;8.35;;;20.40;81.70;;;;;;4994139;28;20026;-79
2022/09/11 09:59:42;;;;;;;13.82;8.20;;;20.40;81.70;;;;;;4992639;28;20041;-79
2022/09/11 10:02:08;;;;;;;11.98;7.85;;;20.40;81.80;;;;;;4993021;28;20034;-79
2022/09/11 10:04:33;;;;;;;10.57;7.60;;;20.50;81.90;;;;;;4996438;28;20030;-79
2022/09/11 10:07:17;;;;;;;15.10;7.63;;;20.40;81.80;;;;;;4997466;28;20045;-80
2022/09/11 10:09:50;;;;;;;11.27;7.93;;;20.40;81.90;;;;;;4994274;28;20117;-80
2022/09/11 10:12:24;;;;;;;11.80;8.00;;;20.40;81.90;;;;;;4998046;28;20052;-78
2022/09/11 10:14:55;;;;;;;11.85;7.90;;;20.40;82.00;;;;;;4999291;28;20481;-81
2022/09/11 10:17:42;;;;;;;19.20;8.52;;;20.40;82.00;;;;;;5004392;28;20063;-79
2022/09/11 10:20:24;;;;;;;16.92;8.02;;;20.30;82.10;;;;;;5000938;28;20033;-79
2022/09/11 10:22:50;;;;;;;17.83;8.45;;;20.30;82.30;;;;;;5012508;28;20033;-81
2022/09/11 10:25:39;;;;;;;21.25;8.90;;;20.40;82.20;;;;;;5011828;28;20061;-80
2022/09/11 10:28:19;;;;;;;15.50;7.82;;;20.40;82.00;;;;;;5012964;28;20026;-78
2022/09/11 10:30:58;;;;;;;22.23;8.53;;;20.60;82.10;;;;;;5010591;28;20018;-80
2022/09/11 10:33:32;;;;;;;14.35;8.27;;;21.50;82.50;;;;;;5011604;28;20492;-81
2022/09/11 10:36:00;;;;;;;15.73;7.85;;;20.50;81.90;;;;;;5011294;28;20030;-79
2022/09/11 10:38:56;;;;;;;15.15;7.68;;;20.60;81.90;;;;;;5011028;28;20026;-80
2022/09/11 10:41:26;;;;;;;18.67;7.60;;;20.80;81.40;;;;;;5001998;28;20041;-81
2022/09/11 10:43:59;;;;;;;16.83;7.57;;;20.80;81.20;;;;;;5012061;28;20022;-80
2022/09/11 10:46:44;;;;;;;15.93;7.63;;;20.80;81.60;;;;;;4997216;28;20057;-80
2022/09/11 10:49:15;;;;;;;13.30;7.03;;;20.90;81.90;;;;;;4989896;28;20116;-80
2022/09/11 10:52:12;;;;;;;14.15;6.95;;;21.00;82.60;;;;;;4995142;28;20537;-82
2022/09/11 10:54:59;;;;;;;14.70;6.85;;;21.10;82.90;;;;;;4992852;28;20038;-79
2022/09/11 10:58:04;;;;;;;16.08;7.53;;;21.30;83.30;;;;;;5001176;28;20042;-81
2022/09/11 11:00:34;;;;;;;15.32;6.78;;;21.30;83.10;;;;;;5004233;28;20022;-80
2022/09/11 11:03:15;;;;;;;11.90;6.45;;;21.40;83.40;;;;;;4995540;28;20113;-81
2022/09/11 11:06:06;;;;;;;12.15;6.40;;;21.50;83.50;;;;;;4995302;28;20109;-82
2022/09/11 11:08:49;;;;;;;12.45;6.68;;;21.50;83.40;;;;;;5011033;28;20080;-80
2022/09/11 11:11:40;;;;;;;13.68;6.78;;;21.50;83.10;;;;;;5011956;28;20615;-81
2022/09/11 11:14:27;;;;;;;11.43;6.45;;;21.60;83.00;;;;;;5011446;28;20033;-78
2022/09/11 11:17:30;;;;;;;12.38;6.60;;;21.60;82.80;;;;;;4990700;28;20031;-77
2022/09/11 11:20:27;;;;;;;14.65;6.40;;;21.70;82.30;;;;;;4990855;28;20054;-81
2022/09/11 11:23:23;;;;;;;13.57;6.32;;;21.80;82.00;;;;;;4990783;28;20037;-81
2022/09/11 11:26:03;;;;;;;12.52;5.80;;;21.90;81.70;;;;;;4990720;28;20030;-79
2022/09/11 11:29:06;;;;;;;12.27;5.80;;;21.90;81.30;;;;;;4992079;28;20109;-81
2022/09/11 11:32:02;;;;;;;10.82;5.40;;;22.00;80.90;;;;;;4992086;28;20034;-77
2022/09/11 11:35:00;;;;;;;10.02;5.28;;;21.90;80.50;;;;;;4999361;28;20074;-81
2022/09/11 11:37:34;;;;;;;10.20;5.65;;;21.90;81.00;;;;;;4992016;28;20031;-85
2022/09/11 11:40:15;;;;;;;11.90;5.85;;;21.80;81.40;;;;;;4990949;28;20445;-83
2022/09/11 11:42:47;;;;;;;10.40;5.18;;;21.70;81.90;;;;;;4991695;28;20022;-84
2022/09/11 11:45:26;;;;;;;11.38;5.63;;;21.60;82.30;;;;;;4996526;28;20038;-78
2022/09/11 11:47:54;;;;;;;12.27;5.38;;;21.50;82.50;;;;;;4996813;28;20053;-80
2022/09/11 11:50:36;;;;;;;12.35;5.88;;;21.40;82.60;;;;;;4994987;28;20034;-81
2022/09/11 11:53:24;;;;;;;11.32;5.72;;;21.40;82.90;;;;;;4994332;28;20042;-80
2022/09/11 11:56:06;;;;;;;11.00;5.57;;;21.40;83.10;;;;;;4993477;28;20027;-80
2022/09/11 11:58:39;;;;;;;11.80;5.78;;;21.40;83.10;;;;;;4992471;28;20023;-80
2022/09/11 12:01:23;;;;;;;9.52;5.13;;;21.40;83.00;;;;;;4993942;28;20081;-80
2022/09/11 12:03:58;;;;;;;14.07;5.40;;;21.40;82.80;;;;;;4992690;28;20517;-80
2022/09/11 12:06:25;;;;;;;8.77;4.95;;;21.40;82.70;;;;;;4993678;28;20125;-78
2022/09/11 12:08:52;;;;;;;13.30;5.82;;;21.40;82.60;;;;;;4992123;28;20046;-80
2022/09/11 12:11:31;;;;;;;10.85;5.13;;;21.40;82.70;;;;;;4993370;28;20036;-79
2022/09/11 12:13:58;;;;;;;9.20;4.82;;;21.40;82.50;;;;;;4993019;28;20328;-81
2022/09/11 12:16:32;;;;;;;9.27;4.90;;;21.40;82.60;;;;;;4992844;28;20030;-80
2022/09/11 12:19:03;;;;;;;11.32;5.10;;;21.40;82.50;;;;;;4992049;28;20033;-78
2022/09/11 12:21:30;;;;;;;9.75;4.80;;;21.40;82.50;;;;;;4992517;28;20346;-79
2022/09/11 12:23:55;;;;;;;9.93;4.40;;;21.40;82.70;;;;;;4991263;28;20097;-79
2022/09/11 12:26:26;;;;;;;10.23;5.03;;;21.30;82.70;;;;;;4992031;28;20069;-79
2022/09/11 12:29:29;;;;;;;8.82;4.88;;;21.30;82.80;;;;;;4991791;28;20030;-79
2022/09/11 12:31:57;;;;;;;11.20;5.00;;;21.20;82.90;;;;;;4991649;28;20109;-80
2022/09/11 12:34:45;;;;;;;9.93;5.00;;;21.20;82.90;;;;;;4991566;28;20385;-80
2022/09/11 12:37:24;;;;;;;9.48;4.72;;;21.20;82.70;;;;;;4989750;28;20045;-78
2022/09/11 12:39:55;;;;;;;10.00;5.03;;;21.30;83.00;;;;;;4990187;28;20027;-80
2022/09/11 12:42:24;;;;;;;10.98;4.93;;;21.20;82.60;;;;;;4991438;28;20069;-80
2022/09/11 12:44:49;;;;;;;9.90;4.80;;;21.30;82.70;;;;;;4991731;28;20022;-79
2022/09/11 12:47:27;;;;;;;11.25;4.93;;;21.20;82.60;;;;;;4990814;28;20544;-78
2022/09/11 12:50:13;;;;;;;12.15;5.30;;;21.30;82.60;;;;;;4990632;28;20054;-79
2022/09/11 12:52:45;;;;;;;10.45;4.72;;;21.30;82.60;;;;;;4990821;28;20043;-79
2022/09/11 12:55:42;;;;;;;8.75;4.70;;;21.20;82.50;;;;;;4989360;28;20065;-80
2022/09/11 12:58:39;;;;;;;8.63;4.57;;;21.30;82.50;;;;;;4973772;28;20035;-80
2022/09/11 13:01:12;;;;;;;8.82;4.47;;;21.30;82.40;;;;;;4989676;28;20026;-78
2022/09/11 13:03:57;;;;;;;10.40;5.05;;;21.30;82.20;;;;;;4989139;28;20026;-80
2022/09/11 13:06:34;;;;;;;8.57;4.38;;;21.30;82.10;;;;;;4988992;28;20077;-80
2022/09/11 13:09:01;;;;;;;9.77;4.25;;;21.30;82.10;;;;;;4990702;28;20401;-80
2022/09/11 13:11:47;;;;;;;8.23;4.90;;;21.30;82.20;;;;;;4998277;28;20022;-80